Webcam Castelli Romani more information Webcam Castelli Romani


Webcam Traffico live more information Webcam Traffico live


altri nostri siti meteo:

Meteo-CloudBanner Meteo-Cloud

Pomeziameteo 1Sito sul meteo

Pomeziameteo DashboardSito sul meteo

Caput FrigorisSito sul meteo

BarcellonameteoSito sul meteo

MeteoipassiSito sul meteo

ViterbometeoSito sul meteo

TortoretometeolidoSito sul meteo

MeteospinacetoSito sul meteo

MeteoardeaSito sul meteo

MeteopalestrinaSito sul meteo

MeteocastelliSito sul meteo

MeteoiserniaSito sul meteo

RomaeurmeteoSito sul meteo

MeteomarconiaSito sul meteo

CastelnuovovomanometeoSito sul meteo

MeteogonzagaSito sul meteo

MeteonetworkInvio dai a Meteonetwork

Rete Linea MeteoInvio dai a Meteonetwork

DesotermicaBanner Desotermica



Non è richiesta alcuna attenzione speciale.    Non sono presenti avvisi meteorologici di particolare rilevanza

Notice: Undefined offset: 5 in /web/htdocs/www.meteopomezia.it/home/weather28/metar/metarDisplay.php on line 75

Notice: Undefined offset: 6 in /web/htdocs/www.meteopomezia.it/home/weather28/metar/metarDisplay.php on line 75

Report METAR

   
LIRE - Pratica di mare
Dati ricevuti: 18-01-2019 17:55
Parzialmente nuvoloso  
Parzialmente nuvoloso  
   Vento: W 7.4 km/h
Vento: W 7.4 km/h
Temperatura: 10°C
Temperatura Vento: 9°C
P.to Rugiada: 5°C
Umidita: 71%
Barometro: 1013 hPa
Nuvole: Parzialmente nuvoloso
Visibilita: oltre 10 km
dettagli cloud: Poche nuvole 2500 ft,
Parzialmente nuvoloso 5000 ft
LIRE 181655Z 30004KT 9999 FEW025 SCT050 10/05 Q1013 RMK BKN VIS MIN 9999 WIND THR13 30004KT WIND THR31 /////KT BLU
LIRF - Fiumicino
Dati ricevuti: 18-01-2019 18:50
Parzialmente nuvoloso  
Parzialmente nuvoloso  
   Vento: W 14.8 km/h
Vento: W 14.8 km/h
Temperatura: 10°C
Temperatura Vento: 8°C
P.to Rugiada: 4°C
Umidita: 67%
Barometro: 1013 hPa
Nuvole: Parzialmente nuvoloso
Visibilita: oltre 10 km
dettagli cloud: Parzialmente nuvoloso 3500 ft
LIRF 181750Z 25008KT 9999 SCT035 10/04 Q1013 NOSIG
LIRA - Ciampino
Dati ricevuti: 18-01-2019 18:50
Poche nuvole  
Poche nuvole  
   Vento: SE 7.4 km/h
Vento: SE 7.4 km/h
Temperatura: 8°C
Temperatura Vento: 7°C
P.to Rugiada: 5°C
Umidita: 82%
Barometro: 1013 hPa
Nuvole: Poche nuvole
Visibilita: oltre 10 km
dettagli cloud: Poche nuvole 4000 ft
LIRA 181750Z 14004KT 9999 FEW040 08/05 Q1013
LIRL - Latina
Dati ricevuti: 18-01-2019 17:55
Parzialmente nuvoloso  
Parzialmente nuvoloso  
   Vento: NO 5.6 km/h
Vento: NO 5.6 km/h
Temperatura: 10°C
Temperatura Vento: 9°C
P.to Rugiada: 9°C
Umidita: 94%
Barometro: 1013 hPa
Nuvole: Parzialmente nuvoloso
Visibilita: oltre 10 km
dettagli cloud: Parzialmente nuvoloso 1800 ft,
Parzialmente nuvoloso 4000 ft
LIRL 181655Z 32003KT 9999 SCT018 SCT040 10/09 Q1013
  

Script sviluppato da  Saratoga-weather.org Adattato per il modello da  Weerstation Leuven

Potete trovare le nostre info meteo anche a:

UK Metoffice

European Weather Network

Weather Underground

AWEKAS

Citizen Weather Observer Program (CWOP)

HAMweather, WeatherForYou, PWS Weather

Strumentazione usata:

Stazione meteo
Davis VP2

Programma gestore dati meteo
WVIEW

Server per i dati meteo
Pc-WDS5

Provider
PC-HP-6005

Davis VP2

WVIEW

Pc-WDS5

PC-HP-6005